sensor_id;sensor_type;location;lat;lon;timestamp;temperature;humidity
35206;DHT22;46555;45.620;13.796;2022-09-09T13:51:43;29.70;99.90
35206;DHT22;46555;45.620;13.796;2022-09-09T13:54:14;29.20;99.90
35206;DHT22;46555;45.620;13.796;2022-09-09T13:56:40;29.10;99.90
35206;DHT22;46555;45.620;13.796;2022-09-09T13:59:14;28.60;99.90
35206;DHT22;46555;45.620;13.796;2022-09-09T14:01:40;28.60;99.90
35206;DHT22;46555;45.620;13.796;2022-09-09T14:04:07;28.10;99.90
35206;DHT22;46555;45.620;13.796;2022-09-09T14:06:35;27.80;99.90
35206;DHT22;46555;45.620;13.796;2022-09-09T14:09:04;27.80;99.90
35206;DHT22;46555;45.620;13.796;2022-09-09T14:11:29;28.40;99.90
35206;DHT22;46555;45.620;13.796;2022-09-09T14:13:55;29.00;99.90
35206;DHT22;46555;45.620;13.796;2022-09-09T14:16:21;29.10;99.90
35206;DHT22;46555;45.620;13.796;2022-09-09T14:18:47;29.50;99.90
35206;DHT22;46555;45.620;13.796;2022-09-09T14:21:14;30.50;99.90
35206;DHT22;46555;45.620;13.796;2022-09-09T14:23:40;30.50;99.90
35206;DHT22;46555;45.620;13.796;2022-09-09T14:26:06;30.30;99.90
35206;DHT22;46555;45.620;13.796;2022-09-09T14:28:33;30.00;99.90
35206;DHT22;46555;45.620;13.796;2022-09-09T14:31:03;29.80;99.90
35206;DHT22;46555;45.620;13.796;2022-09-09T14:33:29;29.70;99.90
35206;DHT22;46555;45.620;13.796;2022-09-09T14:36:00;29.80;99.90
35206;DHT22;46555;45.620;13.796;2022-09-09T14:38:30;30.80;99.90
35206;DHT22;46555;45.620;13.796;2022-09-09T14:40:55;31.70;99.90
35206;DHT22;46555;45.620;13.796;2022-09-09T14:43:22;32.00;99.90
35206;DHT22;46555;45.620;13.796;2022-09-09T14:45:47;31.60;99.90
35206;DHT22;46555;45.620;13.796;2022-09-09T14:48:19;31.30;99.90
35206;DHT22;46555;45.620;13.796;2022-09-09T14:50:45;31.00;99.90
35206;DHT22;46555;45.620;13.796;2022-09-09T14:53:10;31.20;99.90
35206;DHT22;46555;45.620;13.796;2022-09-09T14:55:36;32.10;99.90
35206;DHT22;46555;45.620;13.796;2022-09-09T14:58:03;32.70;99.90
35206;DHT22;46555;45.620;13.796;2022-09-09T15:00:29;32.30;99.90
35206;DHT22;46555;45.620;13.796;2022-09-09T15:02:55;31.60;99.90
35206;DHT22;46555;45.620;13.796;2022-09-09T15:05:21;31.30;99.90
35206;DHT22;46555;45.620;13.796;2022-09-09T15:07:48;31.30;99.90
35206;DHT22;46555;45.620;13.796;2022-09-09T15:10:16;31.80;99.90
35206;DHT22;46555;45.620;13.796;2022-09-09T15:12:43;32.90;99.90
35206;DHT22;46555;45.620;13.796;2022-09-09T15:15:09;34.40;99.90
35206;DHT22;46555;45.620;13.796;2022-09-09T15:17:35;35.90;99.90
35206;DHT22;46555;45.620;13.796;2022-09-09T15:20:04;37.30;99.90
35206;DHT22;46555;45.620;13.796;2022-09-09T15:22:31;37.50;97.60
35206;DHT22;46555;45.620;13.796;2022-09-09T15:24:57;37.20;97.80
35206;DHT22;46555;45.620;13.796;2022-09-09T15:27:23;36.60;96.60
35206;DHT22;46555;45.620;13.796;2022-09-09T15:29:49;35.80;97.30
35206;DHT22;46555;45.620;13.796;2022-09-09T15:32:17;34.20;97.70
35206;DHT22;46555;45.620;13.796;2022-09-09T15:34:43;32.90;99.90
35206;DHT22;46555;45.620;13.796;2022-09-09T15:37:10;32.00;99.90
35206;DHT22;46555;45.620;13.796;2022-09-09T15:39:39;30.90;99.90
35206;DHT22;46555;45.620;13.796;2022-09-09T15:42:05;30.10;99.90
35206;DHT22;46555;45.620;13.796;2022-09-09T15:44:42;29.20;99.90
35206;DHT22;46555;45.620;13.796;2022-09-09T15:47:10;27.80;99.90
35206;DHT22;46555;45.620;13.796;2022-09-09T15:49:35;26.20;99.90
35206;DHT22;46555;45.620;13.796;2022-09-09T15:52:01;25.20;99.90
35206;DHT22;46555;45.620;13.796;2022-09-09T15:54:32;24.60;99.90
35206;DHT22;46555;45.620;13.796;2022-09-09T15:56:59;24.40;99.90
35206;DHT22;46555;45.620;13.796;2022-09-09T15:59:27;24.30;99.90
35206;DHT22;46555;45.620;13.796;2022-09-09T16:01:53;24.30;99.90
35206;DHT22;46555;45.620;13.796;2022-09-09T16:04:21;24.40;99.90
35206;DHT22;46555;45.620;13.796;2022-09-09T16:06:52;24.50;99.90
35206;DHT22;46555;45.620;13.796;2022-09-09T16:09:18;24.50;99.90
35206;DHT22;46555;45.620;13.796;2022-09-09T16:11:44;24.60;99.90
35206;DHT22;46555;45.620;13.796;2022-09-09T16:14:12;24.70;99.90
35206;DHT22;46555;45.620;13.796;2022-09-09T16:16:38;24.80;99.90
35206;DHT22;46555;45.620;13.796;2022-09-09T16:19:06;24.80;99.90
35206;DHT22;46555;45.620;13.796;2022-09-09T16:21:35;24.80;99.90
35206;DHT22;46555;45.620;13.796;2022-09-09T16:24:02;24.80;99.90
35206;DHT22;46555;45.620;13.796;2022-09-09T16:26:29;24.90;99.90
35206;DHT22;46555;45.620;13.796;2022-09-09T16:28:56;25.00;99.90
35206;DHT22;46555;45.620;13.796;2022-09-09T16:31:25;25.10;99.90
35206;DHT22;46555;45.620;13.796;2022-09-09T16:33:52;25.10;99.90
35206;DHT22;46555;45.620;13.796;2022-09-09T16:36:23;25.10;99.90
35206;DHT22;46555;45.620;13.796;2022-09-09T16:38:52;25.00;99.90
35206;DHT22;46555;45.620;13.796;2022-09-09T16:41:19;25.00;99.90
35206;DHT22;46555;45.620;13.796;2022-09-09T16:43:45;24.90;99.90
35206;DHT22;46555;45.620;13.796;2022-09-09T16:46:16;24.80;99.90
35206;DHT22;46555;45.620;13.796;2022-09-09T16:48:44;24.70;99.90
35206;DHT22;46555;45.620;13.796;2022-09-09T16:53:41;24.60;99.90
35206;DHT22;46555;45.620;13.796;2022-09-09T16:56:14;24.60;99.90
35206;DHT22;46555;45.620;13.796;2022-09-09T16:58:41;24.40;99.90
35206;DHT22;46555;45.620;13.796;2022-09-09T17:01:09;24.30;99.90
35206;DHT22;46555;45.620;13.796;2022-09-09T17:03:35;24.00;99.90
35206;DHT22;46555;45.620;13.796;2022-09-09T17:06:02;23.70;99.90
35206;DHT22;46555;45.620;13.796;2022-09-09T17:08:29;23.40;99.90
35206;DHT22;46555;45.620;13.796;2022-09-09T17:10:56;23.30;99.90
35206;DHT22;46555;45.620;13.796;2022-09-09T17:13:21;23.40;99.90
35206;DHT22;46555;45.620;13.796;2022-09-09T17:15:47;23.40;99.90
35206;DHT22;46555;45.620;13.796;2022-09-09T17:18:13;23.50;99.90
35206;DHT22;46555;45.620;13.796;2022-09-09T17:20:40;23.50;99.90
35206;DHT22;46555;45.620;13.796;2022-09-09T17:23:07;23.40;99.90
35206;DHT22;46555;45.620;13.796;2022-09-09T17:25:34;23.30;99.90
35206;DHT22;46555;45.620;13.796;2022-09-09T17:28:00;23.10;99.90
35206;DHT22;46555;45.620;13.796;2022-09-09T17:30:27;22.90;99.90
35206;DHT22;46555;45.620;13.796;2022-09-09T17:32:53;22.70;99.90
35206;DHT22;46555;45.620;13.796;2022-09-09T17:35:18;22.60;99.90
35206;DHT22;46555;45.620;13.796;2022-09-09T17:37:44;22.40;99.90
35206;DHT22;46555;45.620;13.796;2022-09-09T17:40:10;22.30;99.90
35206;DHT22;46555;45.620;13.796;2022-09-09T17:42:36;22.20;99.90
35206;DHT22;46555;45.620;13.796;2022-09-09T17:45:02;22.00;99.90
35206;DHT22;46555;45.620;13.796;2022-09-09T17:47:28;22.00;99.90
35206;DHT22;46555;45.620;13.796;2022-09-09T17:49:56;21.90;99.90
35206;DHT22;46555;45.620;13.796;2022-09-09T17:52:21;21.90;99.90
35206;DHT22;46555;45.620;13.796;2022-09-09T17:54:48;21.80;99.90
35206;DHT22;46555;45.620;13.796;2022-09-09T17:57:15;21.80;99.90
35206;DHT22;46555;45.620;13.796;2022-09-09T17:59:42;21.70;99.90
35206;DHT22;46555;45.620;13.796;2022-09-09T18:02:10;21.60;99.90
35206;DHT22;46555;45.620;13.796;2022-09-09T18:04:36;21.50;99.90
35206;DHT22;46555;45.620;13.796;2022-09-09T18:07:03;21.40;99.90
35206;DHT22;46555;45.620;13.796;2022-09-09T18:09:30;21.30;99.90
35206;DHT22;46555;45.620;13.796;2022-09-09T18:11:57;21.20;99.90
35206;DHT22;46555;45.620;13.796;2022-09-09T18:14:30;21.20;99.90
35206;DHT22;46555;45.620;13.796;2022-09-09T18:16:57;21.10;99.90
35206;DHT22;46555;45.620;13.796;2022-09-09T18:19:25;21.00;99.90
35206;DHT22;46555;45.620;13.796;2022-09-09T18:21:52;21.00;99.90
35206;DHT22;46555;45.620;13.796;2022-09-09T18:24:19;20.90;99.90
35206;DHT22;46555;45.620;13.796;2022-09-09T18:26:46;20.90;99.90
35206;DHT22;46555;45.620;13.796;2022-09-09T18:29:15;20.80;99.90
35206;DHT22;46555;45.620;13.796;2022-09-09T18:31:41;20.90;99.90
35206;DHT22;46555;45.620;13.796;2022-09-09T18:34:09;20.90;99.90
35206;DHT22;46555;45.620;13.796;2022-09-09T18:36:50;20.90;99.90
35206;DHT22;46555;45.620;13.796;2022-09-09T18:39:21;20.90;99.90
35206;DHT22;46555;45.620;13.796;2022-09-09T18:41:51;20.80;99.90
35206;DHT22;46555;45.620;13.796;2022-09-09T18:44:22;20.80;99.90
35206;DHT22;46555;45.620;13.796;2022-09-09T18:46:50;20.80;99.90
35206;DHT22;46555;45.620;13.796;2022-09-09T18:49:18;20.80;99.90
35206;DHT22;46555;45.620;13.796;2022-09-09T18:51:44;20.90;99.90
35206;DHT22;46555;45.620;13.796;2022-09-09T18:54:25;20.80;99.90
35206;DHT22;46555;45.620;13.796;2022-09-09T18:56:53;20.80;99.90
35206;DHT22;46555;45.620;13.796;2022-09-09T18:59:21;20.80;99.90
35206;DHT22;46555;45.620;13.796;2022-09-09T19:01:49;20.80;99.90
35206;DHT22;46555;45.620;13.796;2022-09-09T19:04:17;20.70;99.90
35206;DHT22;46555;45.620;13.796;2022-09-09T19:06:45;20.70;99.90
35206;DHT22;46555;45.620;13.796;2022-09-09T19:09:14;20.70;99.90
35206;DHT22;46555;45.620;13.796;2022-09-09T19:11:40;20.70;99.90
35206;DHT22;46555;45.620;13.796;2022-09-09T19:14:09;20.60;99.90
35206;DHT22;46555;45.620;13.796;2022-09-09T19:16:37;20.60;99.90
35206;DHT22;46555;45.620;13.796;2022-09-09T19:19:07;20.60;99.90
35206;DHT22;46555;45.620;13.796;2022-09-09T19:21:36;20.60;99.90
35206;DHT22;46555;45.620;13.796;2022-09-09T19:24:03;20.60;99.90
35206;DHT22;46555;45.620;13.796;2022-09-09T19:26:33;20.50;99.90
35206;DHT22;46555;45.620;13.796;2022-09-09T19:29:01;20.50;99.90
35206;DHT22;46555;45.620;13.796;2022-09-09T19:31:28;20.40;99.90
35206;DHT22;46555;45.620;13.796;2022-09-09T19:33:55;20.40;99.90
35206;DHT22;46555;45.620;13.796;2022-09-09T19:36:22;20.40;99.90
35206;DHT22;46555;45.620;13.796;2022-09-09T19:38:48;20.40;99.90
35206;DHT22;46555;45.620;13.796;2022-09-09T19:41:19;20.50;99.90
35206;DHT22;46555;45.620;13.796;2022-09-09T19:43:48;20.50;99.90
35206;DHT22;46555;45.620;13.796;2022-09-09T19:46:16;20.50;99.90
35206;DHT22;46555;45.620;13.796;2022-09-09T19:48:44;20.50;99.90
35206;DHT22;46555;45.620;13.796;2022-09-09T19:51:20;20.50;99.90
35206;DHT22;46555;45.620;13.796;2022-09-09T19:53:48;20.50;99.90
35206;DHT22;46555;45.620;13.796;2022-09-09T19:56:16;20.50;99.90
35206;DHT22;46555;45.620;13.796;2022-09-09T19:58:45;20.50;99.90
35206;DHT22;46555;45.620;13.796;2022-09-09T20:01:33;20.50;99.90
35206;DHT22;46555;45.620;13.796;2022-09-09T20:04:02;20.50;99.90
35206;DHT22;46555;45.620;13.796;2022-09-09T20:06:38;20.50;99.90
35206;DHT22;46555;45.620;13.796;2022-09-09T20:09:07;20.50;99.90
35206;DHT22;46555;45.620;13.796;2022-09-09T20:11:33;20.50;99.90
35206;DHT22;46555;45.620;13.796;2022-09-09T20:13:59;20.60;99.90
35206;DHT22;46555;45.620;13.796;2022-09-09T20:16:27;20.50;99.90
35206;DHT22;46555;45.620;13.796;2022-09-09T20:18:56;20.50;99.90
35206;DHT22;46555;45.620;13.796;2022-09-09T20:21:24;20.50;99.90
35206;DHT22;46555;45.620;13.796;2022-09-09T20:23:51;20.50;99.90
35206;DHT22;46555;45.620;13.796;2022-09-09T20:26:21;20.50;99.90
35206;DHT22;46555;45.620;13.796;2022-09-09T20:28:49;20.50;99.90
35206;DHT22;46555;45.620;13.796;2022-09-09T20:31:21;20.40;99.90
35206;DHT22;46555;45.620;13.796;2022-09-09T20:33:47;20.40;99.90
35206;DHT22;46555;45.620;13.796;2022-09-09T20:36:19;20.40;99.90
35206;DHT22;46555;45.620;13.796;2022-09-09T20:38:53;20.30;99.90
35206;DHT22;46555;45.620;13.796;2022-09-09T20:41:21;20.40;99.90
35206;DHT22;46555;45.620;13.796;2022-09-09T20:43:51;20.40;99.90
35206;DHT22;46555;45.620;13.796;2022-09-09T20:46:19;20.40;99.90
35206;DHT22;46555;45.620;13.796;2022-09-09T20:48:46;20.40;99.90
35206;DHT22;46555;45.620;13.796;2022-09-09T20:51:13;20.30;99.90
35206;DHT22;46555;45.620;13.796;2022-09-09T20:53:39;20.40;99.90
35206;DHT22;46555;45.620;13.796;2022-09-09T20:56:06;20.30;99.90
35206;DHT22;46555;45.620;13.796;2022-09-09T20:58:32;20.30;99.90
35206;DHT22;46555;45.620;13.796;2022-09-09T21:00:58;20.30;99.90
35206;DHT22;46555;45.620;13.796;2022-09-09T21:03:35;20.30;99.90
35206;DHT22;46555;45.620;13.796;2022-09-09T21:06:04;20.20;99.90
35206;DHT22;46555;45.620;13.796;2022-09-09T21:08:32;20.20;99.90
35206;DHT22;46555;45.620;13.796;2022-09-09T21:10:58;20.20;99.90
35206;DHT22;46555;45.620;13.796;2022-09-09T21:13:27;20.20;99.90
35206;DHT22;46555;45.620;13.796;2022-09-09T21:15:53;20.20;99.90
35206;DHT22;46555;45.620;13.796;2022-09-09T21:18:19;20.20;99.90
35206;DHT22;46555;45.620;13.796;2022-09-09T21:20:45;20.20;99.90
35206;DHT22;46555;45.620;13.796;2022-09-09T21:23:13;20.20;99.90
35206;DHT22;46555;45.620;13.796;2022-09-09T21:25:39;20.30;99.90
35206;DHT22;46555;45.620;13.796;2022-09-09T21:28:06;20.30;99.90
35206;DHT22;46555;45.620;13.796;2022-09-09T21:30:36;20.30;99.90
35206;DHT22;46555;45.620;13.796;2022-09-09T21:33:03;20.30;99.90
35206;DHT22;46555;45.620;13.796;2022-09-09T21:35:33;20.30;99.90
35206;DHT22;46555;45.620;13.796;2022-09-09T21:37:59;20.30;99.90
35206;DHT22;46555;45.620;13.796;2022-09-09T21:40:25;20.30;99.90
35206;DHT22;46555;45.620;13.796;2022-09-09T21:42:51;20.30;99.90
35206;DHT22;46555;45.620;13.796;2022-09-09T21:45:16;20.30;99.90
35206;DHT22;46555;45.620;13.796;2022-09-09T21:47:45;20.30;99.90
35206;DHT22;46555;45.620;13.796;2022-09-09T21:50:11;20.30;99.90
35206;DHT22;46555;45.620;13.796;2022-09-09T21:52:37;20.30;99.90
35206;DHT22;46555;45.620;13.796;2022-09-09T21:55:03;20.30;99.90
35206;DHT22;46555;45.620;13.796;2022-09-09T21:57:29;20.30;99.90
35206;DHT22;46555;45.620;13.796;2022-09-09T21:59:55;20.30;99.90
35206;DHT22;46555;45.620;13.796;2022-09-09T22:02:20;20.30;99.90
35206;DHT22;46555;45.620;13.796;2022-09-09T22:04:46;20.40;99.90
35206;DHT22;46555;45.620;13.796;2022-09-09T22:07:12;20.40;99.90
35206;DHT22;46555;45.620;13.796;2022-09-09T22:09:41;20.40;99.90
35206;DHT22;46555;45.620;13.796;2022-09-09T22:12:07;20.40;99.90
35206;DHT22;46555;45.620;13.796;2022-09-09T22:14:32;20.50;99.90
35206;DHT22;46555;45.620;13.796;2022-09-09T22:16:58;20.50;99.90
35206;DHT22;46555;45.620;13.796;2022-09-09T22:19:24;20.50;99.90
35206;DHT22;46555;45.620;13.796;2022-09-09T22:21:50;20.50;99.90
35206;DHT22;46555;45.620;13.796;2022-09-09T22:24:16;20.50;99.90
35206;DHT22;46555;45.620;13.796;2022-09-09T22:26:41;20.60;99.90
35206;DHT22;46555;45.620;13.796;2022-09-09T22:29:07;20.60;99.90
35206;DHT22;46555;45.620;13.796;2022-09-09T22:31:34;20.70;99.90
35206;DHT22;46555;45.620;13.796;2022-09-09T22:34:00;20.80;99.90
35206;DHT22;46555;45.620;13.796;2022-09-09T22:36:26;20.80;99.90
35206;DHT22;46555;45.620;13.796;2022-09-09T22:38:52;20.40;99.90
35206;DHT22;46555;45.620;13.796;2022-09-09T22:41:18;20.10;99.90
35206;DHT22;46555;45.620;13.796;2022-09-09T22:43:44;19.80;99.90
35206;DHT22;46555;45.620;13.796;2022-09-09T22:46:10;19.70;99.90
35206;DHT22;46555;45.620;13.796;2022-09-09T22:48:37;19.70;99.90
35206;DHT22;46555;45.620;13.796;2022-09-09T22:51:04;19.70;99.90
35206;DHT22;46555;45.620;13.796;2022-09-09T22:53:31;19.70;99.90
35206;DHT22;46555;45.620;13.796;2022-09-09T22:56:00;19.70;99.90
35206;DHT22;46555;45.620;13.796;2022-09-09T22:58:31;19.60;99.90
35206;DHT22;46555;45.620;13.796;2022-09-09T23:00:57;19.50;99.90
35206;DHT22;46555;45.620;13.796;2022-09-09T23:03:28;19.40;99.90
35206;DHT22;46555;45.620;13.796;2022-09-09T23:05:57;19.30;99.90
35206;DHT22;46555;45.620;13.796;2022-09-09T23:08:25;19.10;99.90
35206;DHT22;46555;45.620;13.796;2022-09-09T23:10:51;19.10;99.90
35206;DHT22;46555;45.620;13.796;2022-09-09T23:13:20;18.90;99.90
35206;DHT22;46555;45.620;13.796;2022-09-09T23:15:46;18.80;99.90
35206;DHT22;46555;45.620;13.796;2022-09-09T23:18:12;18.70;99.90
35206;DHT22;46555;45.620;13.796;2022-09-09T23:20:39;18.70;99.90
35206;DHT22;46555;45.620;13.796;2022-09-09T23:23:05;18.60;99.90
35206;DHT22;46555;45.620;13.796;2022-09-09T23:25:34;18.60;99.90
35206;DHT22;46555;45.620;13.796;2022-09-09T23:28:00;18.60;99.90
35206;DHT22;46555;45.620;13.796;2022-09-09T23:30:26;18.60;99.90
35206;DHT22;46555;45.620;13.796;2022-09-09T23:32:52;18.50;99.90
35206;DHT22;46555;45.620;13.796;2022-09-09T23:35:18;18.50;99.90
35206;DHT22;46555;45.620;13.796;2022-09-09T23:37:43;18.50;99.90
35206;DHT22;46555;45.620;13.796;2022-09-09T23:40:09;18.50;99.90
35206;DHT22;46555;45.620;13.796;2022-09-09T23:42:35;18.40;99.90
35206;DHT22;46555;45.620;13.796;2022-09-09T23:45:01;18.40;99.90
35206;DHT22;46555;45.620;13.796;2022-09-09T23:47:26;18.40;99.90
35206;DHT22;46555;45.620;13.796;2022-09-09T23:49:52;18.40;99.90
35206;DHT22;46555;45.620;13.796;2022-09-09T23:52:18;18.30;99.90
35206;DHT22;46555;45.620;13.796;2022-09-09T23:54:44;18.30;99.90
35206;DHT22;46555;45.620;13.796;2022-09-09T23:57:09;18.30;99.90
35206;DHT22;46555;45.620;13.796;2022-09-09T23:59:37;18.30;99.90
